95FL weather

Pinellas County Mosquito Control Heliport
Pinellas Park, Florida, United States

Public forecast

Using degrees Fahrenheit for public forecast. Weather courtesy of forecast.io.

Closest aviation weather report (METAR) to Pinellas County Mosquito Control Heliport

Closest report is St Petersburg Clearwater International Airport, 2.1 nm (3.9 km) N. Retrieved 2019/12/10 08:44 UTC (0 seconds ago):

KPIE 100844Z AUTO 00000KT 2 1/2SM BR CLR 18/17 A3009 RMK AO2 T01780167

Closest aviation forecast (TAF) to Pinellas County Mosquito Control Heliport

Closest forecast is St Petersburg Clearwater International Airport, 2.1 nm (3.9 km) N. Retrieved 2019/12/10 06:22 UTC (2 hours ago):

TAF KPIE 100520Z 1006/1106 VRB04KT P6SM FEW050 SCT250 FM100900 VRB03KT 6SM BR SCT030 FM101400 15010KT P6SM SCT025 BKN060 FM102000 19011KT P6SM SCT030 FM110200 VRB04KT P6SM SCT025